sensor_id;sensor_type;location;lat;lon;timestamp;P1;durP1;ratioP1;P2;durP2;ratioP2
2868;SDS011;1442;47.448;8.582;2023-04-24T00:01:09;3.05;;;0.40;;
2868;SDS011;1442;47.448;8.582;2023-04-24T00:03:38;0.40;;;0.40;;
2868;SDS011;1442;47.448;8.582;2023-04-24T00:06:06;0.57;;;0.57;;
2868;SDS011;1442;47.448;8.582;2023-04-24T00:08:33;0.57;;;0.55;;
2868;SDS011;1442;47.448;8.582;2023-04-24T00:11:01;1.05;;;0.50;;
2868;SDS011;1442;47.448;8.582;2023-04-24T00:13:28;0.60;;;0.60;;
2868;SDS011;1442;47.448;8.582;2023-04-24T00:15:55;1.30;;;0.40;;
2868;SDS011;1442;47.448;8.582;2023-04-24T00:18:23;0.57;;;0.50;;
2868;SDS011;1442;47.448;8.582;2023-04-24T00:20:51;1.25;;;0.50;;
2868;SDS011;1442;47.448;8.582;2023-04-24T00:23:18;0.40;;;0.40;;
2868;SDS011;1442;47.448;8.582;2023-04-24T00:25:45;1.77;;;0.40;;
2868;SDS011;1442;47.448;8.582;2023-04-24T00:28:12;0.57;;;0.57;;
2868;SDS011;1442;47.448;8.582;2023-04-24T00:30:39;0.77;;;0.50;;
2868;SDS011;1442;47.448;8.582;2023-04-24T00:33:06;2.80;;;0.60;;
2868;SDS011;1442;47.448;8.582;2023-04-24T00:35:35;0.75;;;0.55;;
2868;SDS011;1442;47.448;8.582;2023-04-24T00:38:02;0.82;;;0.60;;
2868;SDS011;1442;47.448;8.582;2023-04-24T00:40:29;3.58;;;0.82;;
2868;SDS011;1442;47.448;8.582;2023-04-24T00:42:56;2.08;;;0.90;;
2868;SDS011;1442;47.448;8.582;2023-04-24T00:45:24;0.57;;;0.38;;
2868;SDS011;1442;47.448;8.582;2023-04-24T00:47:52;1.02;;;0.50;;
2868;SDS011;1442;47.448;8.582;2023-04-24T00:50:20;1.38;;;0.40;;
2868;SDS011;1442;47.448;8.582;2023-04-24T00:52:49;0.47;;;0.40;;
2868;SDS011;1442;47.448;8.582;2023-04-24T00:55:16;1.33;;;0.40;;
2868;SDS011;1442;47.448;8.582;2023-04-24T00:57:44;0.30;;;0.30;;
2868;SDS011;1442;47.448;8.582;2023-04-24T01:00:12;0.82;;;0.70;;
2868;SDS011;1442;47.448;8.582;2023-04-24T01:02:39;0.40;;;0.40;;
2868;SDS011;1442;47.448;8.582;2023-04-24T01:05:09;0.95;;;0.30;;
2868;SDS011;1442;47.448;8.582;2023-04-24T01:07:36;0.40;;;0.40;;
2868;SDS011;1442;47.448;8.582;2023-04-24T01:10:07;1.35;;;0.40;;
2868;SDS011;1442;47.448;8.582;2023-04-24T01:12:34;0.90;;;0.52;;
2868;SDS011;1442;47.448;8.582;2023-04-24T01:15:01;0.30;;;0.30;;
2868;SDS011;1442;47.448;8.582;2023-04-24T01:17:30;0.28;;;0.28;;
2868;SDS011;1442;47.448;8.582;2023-04-24T01:19:57;2.72;;;0.40;;
2868;SDS011;1442;47.448;8.582;2023-04-24T01:22:26;0.52;;;0.38;;
2868;SDS011;1442;47.448;8.582;2023-04-24T01:24:53;0.40;;;0.40;;
2868;SDS011;1442;47.448;8.582;2023-04-24T01:27:20;1.27;;;0.43;;
2868;SDS011;1442;47.448;8.582;2023-04-24T01:29:48;1.10;;;0.52;;
2868;SDS011;1442;47.448;8.582;2023-04-24T01:32:17;0.30;;;0.30;;
2868;SDS011;1442;47.448;8.582;2023-04-24T01:34:45;1.38;;;0.40;;
2868;SDS011;1442;47.448;8.582;2023-04-24T01:37:12;0.55;;;0.32;;
2868;SDS011;1442;47.448;8.582;2023-04-24T01:39:40;0.43;;;0.40;;
2868;SDS011;1442;47.448;8.582;2023-04-24T01:42:07;0.40;;;0.40;;
2868;SDS011;1442;47.448;8.582;2023-04-24T01:44:35;0.40;;;0.28;;
2868;SDS011;1442;47.448;8.582;2023-04-24T01:47:02;1.65;;;0.32;;
2868;SDS011;1442;47.448;8.582;2023-04-24T01:49:29;0.38;;;0.30;;
2868;SDS011;1442;47.448;8.582;2023-04-24T01:51:56;2.70;;;0.30;;
2868;SDS011;1442;47.448;8.582;2023-04-24T01:54:23;1.13;;;0.35;;
2868;SDS011;1442;47.448;8.582;2023-04-24T01:56:52;0.20;;;0.20;;
2868;SDS011;1442;47.448;8.582;2023-04-24T01:59:19;0.30;;;0.30;;
2868;SDS011;1442;47.448;8.582;2023-04-24T02:01:47;0.30;;;0.30;;
2868;SDS011;1442;47.448;8.582;2023-04-24T02:04:14;0.40;;;0.40;;
2868;SDS011;1442;47.448;8.582;2023-04-24T02:06:41;0.68;;;0.30;;
2868;SDS011;1442;47.448;8.582;2023-04-24T02:09:08;0.30;;;0.30;;
2868;SDS011;1442;47.448;8.582;2023-04-24T02:11:36;0.40;;;0.30;;
2868;SDS011;1442;47.448;8.582;2023-04-24T02:14:04;0.40;;;0.40;;
2868;SDS011;1442;47.448;8.582;2023-04-24T02:16:32;0.40;;;0.40;;
2868;SDS011;1442;47.448;8.582;2023-04-24T02:19:00;0.50;;;0.40;;
2868;SDS011;1442;47.448;8.582;2023-04-24T02:21:28;0.30;;;0.30;;
2868;SDS011;1442;47.448;8.582;2023-04-24T02:23:55;1.20;;;0.28;;
2868;SDS011;1442;47.448;8.582;2023-04-24T02:26:22;2.38;;;0.20;;
2868;SDS011;1442;47.448;8.582;2023-04-24T02:28:50;0.38;;;0.30;;
2868;SDS011;1442;47.448;8.582;2023-04-24T02:31:18;0.40;;;0.40;;
2868;SDS011;1442;47.448;8.582;2023-04-24T02:33:45;1.60;;;0.32;;
2868;SDS011;1442;47.448;8.582;2023-04-24T02:36:12;0.30;;;0.30;;
2868;SDS011;1442;47.448;8.582;2023-04-24T02:43:33;0.50;;;0.50;;
2868;SDS011;1442;47.448;8.582;2023-04-24T02:46:00;0.77;;;0.50;;
2868;SDS011;1442;47.448;8.582;2023-04-24T02:48:29;0.50;;;0.40;;
2868;SDS011;1442;47.448;8.582;2023-04-24T02:50:56;1.83;;;0.47;;
2868;SDS011;1442;47.448;8.582;2023-04-24T02:53:23;0.88;;;0.40;;
2868;SDS011;1442;47.448;8.582;2023-04-24T02:55:50;0.45;;;0.32;;
2868;SDS011;1442;47.448;8.582;2023-04-24T02:58:17;0.38;;;0.38;;
2868;SDS011;1442;47.448;8.582;2023-04-24T03:00:45;0.80;;;0.40;;
2868;SDS011;1442;47.448;8.582;2023-04-24T03:03:12;0.22;;;0.22;;
2868;SDS011;1442;47.448;8.582;2023-04-24T03:05:41;1.00;;;0.30;;
2868;SDS011;1442;47.448;8.582;2023-04-24T03:08:08;0.45;;;0.30;;
2868;SDS011;1442;47.448;8.582;2023-04-24T03:10:36;0.30;;;0.30;;
2868;SDS011;1442;47.448;8.582;2023-04-24T03:13:03;2.97;;;0.40;;
2868;SDS011;1442;47.448;8.582;2023-04-24T03:15:30;2.85;;;0.40;;
2868;SDS011;1442;47.448;8.582;2023-04-24T03:52:18;0.65;;;0.40;;
2868;SDS011;1442;47.448;8.582;2023-04-24T03:54:45;0.30;;;0.30;;
2868;SDS011;1442;47.448;8.582;2023-04-24T03:57:12;0.50;;;0.50;;
2868;SDS011;1442;47.448;8.582;2023-04-24T04:14:23;0.40;;;0.40;;
2868;SDS011;1442;47.448;8.582;2023-04-24T04:16:50;0.40;;;0.40;;
2868;SDS011;1442;47.448;8.582;2023-04-24T04:19:17;0.38;;;0.25;;
2868;SDS011;1442;47.448;8.582;2023-04-24T04:21:44;1.15;;;0.50;;
2868;SDS011;1442;47.448;8.582;2023-04-24T04:24:17;0.30;;;0.30;;
2868;SDS011;1442;47.448;8.582;2023-04-24T04:26:45;0.40;;;0.40;;
2868;SDS011;1442;47.448;8.582;2023-04-24T04:29:12;0.40;;;0.40;;
2868;SDS011;1442;47.448;8.582;2023-04-24T04:31:41;1.83;;;0.68;;
2868;SDS011;1442;47.448;8.582;2023-04-24T04:34:08;0.80;;;0.55;;
2868;SDS011;1442;47.448;8.582;2023-04-24T04:36:36;0.45;;;0.45;;
2868;SDS011;1442;47.448;8.582;2023-04-24T04:39:05;0.20;;;0.20;;
2868;SDS011;1442;47.448;8.582;2023-04-24T04:41:32;1.58;;;0.38;;
2868;SDS011;1442;47.448;8.582;2023-04-24T04:44:00;0.30;;;0.30;;
2868;SDS011;1442;47.448;8.582;2023-04-24T04:46:30;0.30;;;0.30;;
2868;SDS011;1442;47.448;8.582;2023-04-24T04:49:00;0.70;;;0.40;;
2868;SDS011;1442;47.448;8.582;2023-04-24T04:51:28;0.40;;;0.40;;
2868;SDS011;1442;47.448;8.582;2023-04-24T04:53:56;0.50;;;0.30;;
2868;SDS011;1442;47.448;8.582;2023-04-24T04:56:23;0.30;;;0.30;;
2868;SDS011;1442;47.448;8.582;2023-04-24T04:58:50;0.45;;;0.30;;
2868;SDS011;1442;47.448;8.582;2023-04-24T05:01:17;0.30;;;0.30;;
2868;SDS011;1442;47.448;8.582;2023-04-24T05:03:44;0.30;;;0.30;;
2868;SDS011;1442;47.448;8.582;2023-04-24T05:06:13;0.75;;;0.30;;
2868;SDS011;1442;47.448;8.582;2023-04-24T05:08:40;1.15;;;1.05;;
2868;SDS011;1442;47.448;8.582;2023-04-24T05:11:07;0.40;;;0.40;;
2868;SDS011;1442;47.448;8.582;2023-04-24T05:13:35;0.32;;;0.30;;
2868;SDS011;1442;47.448;8.582;2023-04-24T05:16:02;0.55;;;0.38;;
2868;SDS011;1442;47.448;8.582;2023-04-24T05:18:29;0.40;;;0.30;;
2868;SDS011;1442;47.448;8.582;2023-04-24T05:20:56;0.50;;;0.50;;
2868;SDS011;1442;47.448;8.582;2023-04-24T05:23:24;0.68;;;0.55;;
2868;SDS011;1442;47.448;8.582;2023-04-24T05:25:52;0.82;;;0.50;;
2868;SDS011;1442;47.448;8.582;2023-04-24T05:28:19;0.60;;;0.60;;
2868;SDS011;1442;47.448;8.582;2023-04-24T05:30:46;0.60;;;0.60;;
2868;SDS011;1442;47.448;8.582;2023-04-24T05:33:13;0.47;;;0.47;;
2868;SDS011;1442;47.448;8.582;2023-04-24T05:35:40;0.75;;;0.57;;
2868;SDS011;1442;47.448;8.582;2023-04-24T05:38:11;0.40;;;0.40;;
2868;SDS011;1442;47.448;8.582;2023-04-24T05:40:40;2.05;;;0.57;;
2868;SDS011;1442;47.448;8.582;2023-04-24T05:43:07;2.25;;;0.65;;
2868;SDS011;1442;47.448;8.582;2023-04-24T05:45:34;2.50;;;0.70;;
2868;SDS011;1442;47.448;8.582;2023-04-24T05:48:01;1.95;;;0.55;;
2868;SDS011;1442;47.448;8.582;2023-04-24T05:50:28;1.55;;;1.25;;
2868;SDS011;1442;47.448;8.582;2023-04-24T05:52:56;1.33;;;0.90;;
2868;SDS011;1442;47.448;8.582;2023-04-24T05:55:23;3.70;;;1.02;;
2868;SDS011;1442;47.448;8.582;2023-04-24T05:57:52;0.80;;;0.80;;
2868;SDS011;1442;47.448;8.582;2023-04-24T06:00:20;1.10;;;0.90;;
2868;SDS011;1442;47.448;8.582;2023-04-24T06:02:47;1.15;;;1.00;;
2868;SDS011;1442;47.448;8.582;2023-04-24T06:05:14;1.20;;;1.10;;
2868;SDS011;1442;47.448;8.582;2023-04-24T06:07:41;1.73;;;1.08;;
2868;SDS011;1442;47.448;8.582;2023-04-24T06:10:09;3.33;;;1.05;;
2868;SDS011;1442;47.448;8.582;2023-04-24T06:12:36;1.25;;;1.10;;
2868;SDS011;1442;47.448;8.582;2023-04-24T06:15:05;2.17;;;1.20;;
2868;SDS011;1442;47.448;8.582;2023-04-24T06:17:33;1.17;;;1.02;;
2868;SDS011;1442;47.448;8.582;2023-04-24T06:20:00;12.35;;;1.58;;
2868;SDS011;1442;47.448;8.582;2023-04-24T06:22:28;1.73;;;1.25;;
2868;SDS011;1442;47.448;8.582;2023-04-24T06:24:56;6.38;;;1.48;;
2868;SDS011;1442;47.448;8.582;2023-04-24T06:27:23;5.80;;;1.10;;
2868;SDS011;1442;47.448;8.582;2023-04-24T06:29:50;3.60;;;1.40;;
2868;SDS011;1442;47.448;8.582;2023-04-24T06:32:21;1.30;;;1.20;;
2868;SDS011;1442;47.448;8.582;2023-04-24T06:34:48;4.35;;;1.20;;
2868;SDS011;1442;47.448;8.582;2023-04-24T06:37:15;3.72;;;1.27;;
2868;SDS011;1442;47.448;8.582;2023-04-24T06:39:42;1.38;;;1.25;;
2868;SDS011;1442;47.448;8.582;2023-04-24T06:42:09;1.50;;;1.40;;
2868;SDS011;1442;47.448;8.582;2023-04-24T06:44:36;1.20;;;1.10;;
2868;SDS011;1442;47.448;8.582;2023-04-24T06:47:05;6.07;;;1.10;;
2868;SDS011;1442;47.448;8.582;2023-04-24T06:49:34;1.52;;;1.17;;
2868;SDS011;1442;47.448;8.582;2023-04-24T06:52:02;0.90;;;0.90;;
2868;SDS011;1442;47.448;8.582;2023-04-24T06:54:29;1.70;;;0.98;;
2868;SDS011;1442;47.448;8.582;2023-04-24T06:56:56;0.80;;;0.80;;
2868;SDS011;1442;47.448;8.582;2023-04-24T06:59:23;1.10;;;0.80;;
2868;SDS011;1442;47.448;8.582;2023-04-24T07:01:51;2.22;;;0.75;;
2868;SDS011;1442;47.448;8.582;2023-04-24T07:04:18;0.93;;;0.88;;
2868;SDS011;1442;47.448;8.582;2023-04-24T07:06:46;0.93;;;0.60;;
2868;SDS011;1442;47.448;8.582;2023-04-24T07:09:14;2.70;;;0.70;;
2868;SDS011;1442;47.448;8.582;2023-04-24T07:11:43;2.60;;;0.80;;
2868;SDS011;1442;47.448;8.582;2023-04-24T07:14:10;1.23;;;0.82;;
2868;SDS011;1442;47.448;8.582;2023-04-24T07:16:37;1.60;;;0.80;;
2868;SDS011;1442;47.448;8.582;2023-04-24T07:19:04;0.90;;;0.80;;
2868;SDS011;1442;47.448;8.582;2023-04-24T07:21:32;0.80;;;0.80;;
2868;SDS011;1442;47.448;8.582;2023-04-24T07:24:00;2.25;;;0.98;;
2868;SDS011;1442;47.448;8.582;2023-04-24T07:26:28;1.25;;;0.80;;
2868;SDS011;1442;47.448;8.582;2023-04-24T07:28:55;1.38;;;0.80;;
2868;SDS011;1442;47.448;8.582;2023-04-24T07:31:22;1.33;;;1.05;;
2868;SDS011;1442;47.448;8.582;2023-04-24T07:33:50;1.15;;;0.85;;
2868;SDS011;1442;47.448;8.582;2023-04-24T07:36:17;0.90;;;0.88;;
2868;SDS011;1442;47.448;8.582;2023-04-24T07:38:44;2.20;;;0.80;;
2868;SDS011;1442;47.448;8.582;2023-04-24T07:41:13;2.20;;;1.07;;
2868;SDS011;1442;47.448;8.582;2023-04-24T07:43:40;1.80;;;1.10;;
2868;SDS011;1442;47.448;8.582;2023-04-24T07:46:08;2.10;;;1.17;;
2868;SDS011;1442;47.448;8.582;2023-04-24T07:51:02;1.50;;;1.00;;
2868;SDS011;1442;47.448;8.582;2023-04-24T07:53:29;2.72;;;1.50;;
2868;SDS011;1442;47.448;8.582;2023-04-24T07:55:56;2.05;;;1.17;;
2868;SDS011;1442;47.448;8.582;2023-04-24T07:58:25;2.00;;;1.50;;
2868;SDS011;1442;47.448;8.582;2023-04-24T08:13:07;4.60;;;1.50;;
2868;SDS011;1442;47.448;8.582;2023-04-24T08:15:37;3.22;;;1.60;;
2868;SDS011;1442;47.448;8.582;2023-04-24T08:18:05;4.57;;;1.65;;
2868;SDS011;1442;47.448;8.582;2023-04-24T08:20:32;4.75;;;1.38;;
2868;SDS011;1442;47.448;8.582;2023-04-24T08:22:59;3.20;;;1.40;;
2868;SDS011;1442;47.448;8.582;2023-04-24T08:25:26;3.25;;;1.38;;
2868;SDS011;1442;47.448;8.582;2023-04-24T08:27:53;3.75;;;1.48;;
2868;SDS011;1442;47.448;8.582;2023-04-24T08:30:20;2.65;;;1.80;;
2868;SDS011;1442;47.448;8.582;2023-04-24T08:32:49;3.22;;;1.80;;
2868;SDS011;1442;47.448;8.582;2023-04-24T08:35:16;3.47;;;1.85;;
2868;SDS011;1442;47.448;8.582;2023-04-24T08:37:43;3.38;;;1.80;;
2868;SDS011;1442;47.448;8.582;2023-04-24T08:40:12;7.57;;;1.95;;
2868;SDS011;1442;47.448;8.582;2023-04-24T08:42:41;6.57;;;2.22;;
2868;SDS011;1442;47.448;8.582;2023-04-24T08:45:09;3.35;;;1.88;;
2868;SDS011;1442;47.448;8.582;2023-04-24T08:47:43;3.95;;;2.20;;
2868;SDS011;1442;47.448;8.582;2023-04-24T08:50:12;4.63;;;1.98;;
2868;SDS011;1442;47.448;8.582;2023-04-24T08:52:40;4.50;;;1.70;;
2868;SDS011;1442;47.448;8.582;2023-04-24T08:55:09;6.35;;;1.98;;
2868;SDS011;1442;47.448;8.582;2023-04-24T08:57:36;7.55;;;2.47;;
2868;SDS011;1442;47.448;8.582;2023-04-24T09:00:05;5.85;;;2.00;;
2868;SDS011;1442;47.448;8.582;2023-04-24T09:02:32;4.55;;;2.42;;
2868;SDS011;1442;47.448;8.582;2023-04-24T09:04:59;4.20;;;1.83;;
2868;SDS011;1442;47.448;8.582;2023-04-24T09:07:28;4.22;;;1.98;;
2868;SDS011;1442;47.448;8.582;2023-04-24T09:09:57;3.92;;;1.98;;
2868;SDS011;1442;47.448;8.582;2023-04-24T09:12:24;3.13;;;1.88;;
2868;SDS011;1442;47.448;8.582;2023-04-24T09:14:51;4.80;;;2.05;;
2868;SDS011;1442;47.448;8.582;2023-04-24T09:17:19;2.33;;;1.88;;
2868;SDS011;1442;47.448;8.582;2023-04-24T09:19:47;5.65;;;2.08;;
2868;SDS011;1442;47.448;8.582;2023-04-24T09:22:15;3.33;;;1.60;;
2868;SDS011;1442;47.448;8.582;2023-04-24T09:24:44;5.88;;;1.90;;
2868;SDS011;1442;47.448;8.582;2023-04-24T09:27:12;4.95;;;1.98;;
2868;SDS011;1442;47.448;8.582;2023-04-24T09:29:42;5.40;;;1.45;;
2868;SDS011;1442;47.448;8.582;2023-04-24T09:32:20;4.20;;;1.90;;
2868;SDS011;1442;47.448;8.582;2023-04-24T09:34:47;5.45;;;1.95;;
2868;SDS011;1442;47.448;8.582;2023-04-24T09:37:27;2.92;;;1.63;;
2868;SDS011;1442;47.448;8.582;2023-04-24T09:40:08;4.40;;;1.67;;
2868;SDS011;1442;47.448;8.582;2023-04-24T09:42:36;4.32;;;1.77;;
2868;SDS011;1442;47.448;8.582;2023-04-24T09:45:03;6.85;;;1.63;;
2868;SDS011;1442;47.448;8.582;2023-04-24T09:47:35;5.18;;;1.85;;
2868;SDS011;1442;47.448;8.582;2023-04-24T09:50:08;4.30;;;1.55;;
2868;SDS011;1442;47.448;8.582;2023-04-24T09:52:36;5.07;;;1.45;;
2868;SDS011;1442;47.448;8.582;2023-04-24T09:55:11;5.35;;;1.70;;
2868;SDS011;1442;47.448;8.582;2023-04-24T09:57:46;4.88;;;2.03;;
2868;SDS011;1442;47.448;8.582;2023-04-24T10:00:13;4.90;;;1.67;;
2868;SDS011;1442;47.448;8.582;2023-04-24T10:02:44;5.28;;;1.90;;
2868;SDS011;1442;47.448;8.582;2023-04-24T10:05:11;5.65;;;1.83;;
2868;SDS011;1442;47.448;8.582;2023-04-24T10:07:38;2.50;;;1.30;;
2868;SDS011;1442;47.448;8.582;2023-04-24T10:10:06;2.90;;;1.70;;
2868;SDS011;1442;47.448;8.582;2023-04-24T10:12:34;5.47;;;1.50;;
2868;SDS011;1442;47.448;8.582;2023-04-24T10:15:02;2.30;;;1.52;;
2868;SDS011;1442;47.448;8.582;2023-04-24T10:17:30;5.63;;;1.60;;
2868;SDS011;1442;47.448;8.582;2023-04-24T10:19:58;3.38;;;1.70;;
2868;SDS011;1442;47.448;8.582;2023-04-24T10:22:27;4.22;;;1.83;;
2868;SDS011;1442;47.448;8.582;2023-04-24T10:24:55;3.13;;;1.50;;
2868;SDS011;1442;47.448;8.582;2023-04-24T10:27:23;4.28;;;1.50;;
2868;SDS011;1442;47.448;8.582;2023-04-24T10:29:52;2.67;;;1.20;;
2868;SDS011;1442;47.448;8.582;2023-04-24T10:32:20;7.45;;;1.90;;
2868;SDS011;1442;47.448;8.582;2023-04-24T10:34:47;3.58;;;1.50;;
2868;SDS011;1442;47.448;8.582;2023-04-24T10:37:14;3.47;;;1.60;;
2868;SDS011;1442;47.448;8.582;2023-04-24T10:39:42;7.65;;;1.73;;
2868;SDS011;1442;47.448;8.582;2023-04-24T10:42:15;3.45;;;1.50;;
2868;SDS011;1442;47.448;8.582;2023-04-24T10:44:42;6.20;;;1.42;;
2868;SDS011;1442;47.448;8.582;2023-04-24T10:47:13;5.80;;;1.17;;
2868;SDS011;1442;47.448;8.582;2023-04-24T10:49:41;3.38;;;1.45;;
2868;SDS011;1442;47.448;8.582;2023-04-24T10:52:08;2.72;;;1.23;;
2868;SDS011;1442;47.448;8.582;2023-04-24T10:54:40;2.35;;;1.55;;
2868;SDS011;1442;47.448;8.582;2023-04-24T10:57:27;2.17;;;1.60;;
2868;SDS011;1442;47.448;8.582;2023-04-24T11:00:12;2.05;;;1.33;;
2868;SDS011;1442;47.448;8.582;2023-04-24T11:05:14;4.22;;;1.42;;
2868;SDS011;1442;47.448;8.582;2023-04-24T11:10:28;7.68;;;1.90;;
2868;SDS011;1442;47.448;8.582;2023-04-24T11:12:55;5.13;;;1.85;;
2868;SDS011;1442;47.448;8.582;2023-04-24T11:15:22;5.45;;;1.65;;
2868;SDS011;1442;47.448;8.582;2023-04-24T11:17:49;7.85;;;1.60;;
2868;SDS011;1442;47.448;8.582;2023-04-24T11:20:23;5.35;;;1.70;;
2868;SDS011;1442;47.448;8.582;2023-04-24T11:22:52;4.28;;;1.65;;
2868;SDS011;1442;47.448;8.582;2023-04-24T11:25:20;4.32;;;1.70;;
2868;SDS011;1442;47.448;8.582;2023-04-24T11:27:48;4.78;;;1.30;;
2868;SDS011;1442;47.448;8.582;2023-04-24T11:30:17;2.22;;;1.40;;
2868;SDS011;1442;47.448;8.582;2023-04-24T11:32:47;4.82;;;1.60;;
2868;SDS011;1442;47.448;8.582;2023-04-24T11:35:15;1.58;;;1.25;;
2868;SDS011;1442;47.448;8.582;2023-04-24T11:37:44;4.45;;;1.25;;
2868;SDS011;1442;47.448;8.582;2023-04-24T11:40:12;5.18;;;1.90;;
2868;SDS011;1442;47.448;8.582;2023-04-24T11:42:40;4.25;;;1.58;;
2868;SDS011;1442;47.448;8.582;2023-04-24T11:45:08;2.88;;;1.50;;
2868;SDS011;1442;47.448;8.582;2023-04-24T11:47:35;3.42;;;1.90;;
2868;SDS011;1442;47.448;8.582;2023-04-24T11:50:03;3.97;;;1.60;;
2868;SDS011;1442;47.448;8.582;2023-04-24T11:52:30;4.40;;;1.30;;
2868;SDS011;1442;47.448;8.582;2023-04-24T11:54:59;8.55;;;2.00;;
2868;SDS011;1442;47.448;8.582;2023-04-24T11:57:26;2.63;;;1.50;;
2868;SDS011;1442;47.448;8.582;2023-04-24T11:59:58;3.45;;;1.02;;
2868;SDS011;1442;47.448;8.582;2023-04-24T12:02:26;2.20;;;1.38;;
2868;SDS011;1442;47.448;8.582;2023-04-24T12:04:53;4.40;;;1.45;;
2868;SDS011;1442;47.448;8.582;2023-04-24T12:07:21;3.15;;;1.60;;
2868;SDS011;1442;47.448;8.582;2023-04-24T12:09:50;3.63;;;1.70;;
2868;SDS011;1442;47.448;8.582;2023-04-24T12:12:24;3.65;;;1.80;;
2868;SDS011;1442;47.448;8.582;2023-04-24T12:14:52;2.70;;;1.35;;
2868;SDS011;1442;47.448;8.582;2023-04-24T12:17:23;3.97;;;1.65;;
2868;SDS011;1442;47.448;8.582;2023-04-24T12:19:51;4.22;;;1.60;;
2868;SDS011;1442;47.448;8.582;2023-04-24T12:22:18;3.92;;;1.38;;
2868;SDS011;1442;47.448;8.582;2023-04-24T12:24:56;4.22;;;1.83;;
2868;SDS011;1442;47.448;8.582;2023-04-24T12:27:24;1.38;;;1.27;;
2868;SDS011;1442;47.448;8.582;2023-04-24T12:29:52;1.67;;;1.30;;
2868;SDS011;1442;47.448;8.582;2023-04-24T12:32:19;2.13;;;1.10;;
2868;SDS011;1442;47.448;8.582;2023-04-24T12:34:46;3.42;;;1.10;;
2868;SDS011;1442;47.448;8.582;2023-04-24T12:37:14;1.85;;;1.30;;
2868;SDS011;1442;47.448;8.582;2023-04-24T12:39:44;7.35;;;1.50;;
2868;SDS011;1442;47.448;8.582;2023-04-24T12:42:11;9.93;;;1.42;;
2868;SDS011;1442;47.448;8.582;2023-04-24T12:44:40;6.47;;;1.48;;
2868;SDS011;1442;47.448;8.582;2023-04-24T12:47:07;2.15;;;1.23;;
2868;SDS011;1442;47.448;8.582;2023-04-24T12:49:35;2.03;;;1.30;;
2868;SDS011;1442;47.448;8.582;2023-04-24T12:52:02;2.30;;;1.40;;
2868;SDS011;1442;47.448;8.582;2023-04-24T12:54:32;3.45;;;1.27;;
2868;SDS011;1442;47.448;8.582;2023-04-24T12:56:59;4.20;;;1.25;;
2868;SDS011;1442;47.448;8.582;2023-04-24T12:59:26;3.70;;;1.42;;
2868;SDS011;1442;47.448;8.582;2023-04-24T13:01:55;4.20;;;1.48;;
2868;SDS011;1442;47.448;8.582;2023-04-24T13:04:22;1.65;;;1.08;;
2868;SDS011;1442;47.448;8.582;2023-04-24T13:06:49;1.77;;;1.23;;
2868;SDS011;1442;47.448;8.582;2023-04-24T13:09:16;2.88;;;1.30;;
2868;SDS011;1442;47.448;8.582;2023-04-24T13:11:44;1.20;;;1.10;;
2868;SDS011;1442;47.448;8.582;2023-04-24T13:14:11;1.52;;;1.25;;
2868;SDS011;1442;47.448;8.582;2023-04-24T13:16:38;1.65;;;1.13;;
2868;SDS011;1442;47.448;8.582;2023-04-24T13:19:06;2.03;;;1.58;;
2868;SDS011;1442;47.448;8.582;2023-04-24T13:21:33;3.22;;;1.48;;
2868;SDS011;1442;47.448;8.582;2023-04-24T13:24:00;2.45;;;1.38;;
2868;SDS011;1442;47.448;8.582;2023-04-24T13:26:29;5.32;;;2.08;;
2868;SDS011;1442;47.448;8.582;2023-04-24T13:28:56;5.35;;;1.85;;
2868;SDS011;1442;47.448;8.582;2023-04-24T13:31:24;8.35;;;1.95;;
2868;SDS011;1442;47.448;8.582;2023-04-24T13:33:51;3.00;;;2.33;;
2868;SDS011;1442;47.448;8.582;2023-04-24T13:36:19;3.65;;;1.80;;
2868;SDS011;1442;47.448;8.582;2023-04-24T13:38:46;6.28;;;1.55;;
2868;SDS011;1442;47.448;8.582;2023-04-24T13:41:13;3.50;;;1.58;;
2868;SDS011;1442;47.448;8.582;2023-04-24T13:43:40;3.65;;;1.67;;
2868;SDS011;1442;47.448;8.582;2023-04-24T13:46:08;3.75;;;1.65;;
2868;SDS011;1442;47.448;8.582;2023-04-24T13:48:35;4.43;;;1.90;;
2868;SDS011;1442;47.448;8.582;2023-04-24T13:51:02;5.05;;;1.60;;
2868;SDS011;1442;47.448;8.582;2023-04-24T13:53:31;3.83;;;2.00;;
2868;SDS011;1442;47.448;8.582;2023-04-24T13:56:01;3.42;;;1.65;;
2868;SDS011;1442;47.448;8.582;2023-04-24T13:58:28;4.00;;;1.70;;
2868;SDS011;1442;47.448;8.582;2023-04-24T14:00:55;2.47;;;1.50;;
2868;SDS011;1442;47.448;8.582;2023-04-24T14:03:22;3.65;;;1.60;;
2868;SDS011;1442;47.448;8.582;2023-04-24T14:05:49;2.40;;;1.50;;
2868;SDS011;1442;47.448;8.582;2023-04-24T14:08:16;2.22;;;1.52;;
2868;SDS011;1442;47.448;8.582;2023-04-24T14:10:45;9.85;;;1.58;;
2868;SDS011;1442;47.448;8.582;2023-04-24T14:13:12;4.78;;;1.52;;
2868;SDS011;1442;47.448;8.582;2023-04-24T14:15:39;8.25;;;2.00;;
2868;SDS011;1442;47.448;8.582;2023-04-24T14:18:06;2.30;;;1.45;;
2868;SDS011;1442;47.448;8.582;2023-04-24T14:20:33;7.60;;;2.08;;
2868;SDS011;1442;47.448;8.582;2023-04-24T14:23:00;5.47;;;1.65;;
2868;SDS011;1442;47.448;8.582;2023-04-24T14:25:28;3.47;;;1.80;;
2868;SDS011;1442;47.448;8.582;2023-04-24T14:27:56;4.88;;;1.88;;
2868;SDS011;1442;47.448;8.582;2023-04-24T14:30:24;4.03;;;1.65;;
2868;SDS011;1442;47.448;8.582;2023-04-24T14:32:51;4.00;;;1.65;;
2868;SDS011;1442;47.448;8.582;2023-04-24T14:35:18;7.40;;;2.00;;
2868;SDS011;1442;47.448;8.582;2023-04-24T14:37:45;5.32;;;2.00;;
2868;SDS011;1442;47.448;8.582;2023-04-24T14:40:13;2.72;;;1.52;;
2868;SDS011;1442;47.448;8.582;2023-04-24T14:42:40;3.97;;;1.50;;
2868;SDS011;1442;47.448;8.582;2023-04-24T14:50:03;3.30;;;1.67;;
2868;SDS011;1442;47.448;8.582;2023-04-24T14:52:30;3.42;;;1.50;;
2868;SDS011;1442;47.448;8.582;2023-04-24T14:54:57;5.65;;;2.50;;
2868;SDS011;1442;47.448;8.582;2023-04-24T14:57:24;2.25;;;1.38;;
2868;SDS011;1442;47.448;8.582;2023-04-24T14:59:51;2.72;;;1.60;;
2868;SDS011;1442;47.448;8.582;2023-04-24T15:02:19;4.18;;;1.85;;
2868;SDS011;1442;47.448;8.582;2023-04-24T15:04:46;3.40;;;1.50;;
2868;SDS011;1442;47.448;8.582;2023-04-24T15:07:15;1.42;;;1.25;;
2868;SDS011;1442;47.448;8.582;2023-04-24T15:09:42;1.73;;;1.30;;
2868;SDS011;1442;47.448;8.582;2023-04-24T15:12:09;5.85;;;1.42;;
2868;SDS011;1442;47.448;8.582;2023-04-24T15:14:37;2.13;;;1.50;;
2868;SDS011;1442;47.448;8.582;2023-04-24T15:17:04;3.70;;;1.85;;
2868;SDS011;1442;47.448;8.582;2023-04-24T15:19:31;2.10;;;1.48;;
2868;SDS011;1442;47.448;8.582;2023-04-24T15:21:58;3.72;;;1.50;;
2868;SDS011;1442;47.448;8.582;2023-04-24T15:24:27;3.13;;;1.40;;
2868;SDS011;1442;47.448;8.582;2023-04-24T15:26:54;2.38;;;1.45;;
2868;SDS011;1442;47.448;8.582;2023-04-24T19:05:02;4.82;;;2.55;;
2868;SDS011;1442;47.448;8.582;2023-04-24T20:18:43;3.83;;;2.45;;
2868;SDS011;1442;47.448;8.582;2023-04-24T20:21:10;4.85;;;2.40;;
2868;SDS011;1442;47.448;8.582;2023-04-24T20:23:37;9.18;;;3.83;;
2868;SDS011;1442;47.448;8.582;2023-04-24T20:26:05;7.68;;;3.50;;
2868;SDS011;1442;47.448;8.582;2023-04-24T20:28:32;4.90;;;3.30;;
2868;SDS011;1442;47.448;8.582;2023-04-24T20:30:59;9.00;;;3.28;;
2868;SDS011;1442;47.448;8.582;2023-04-24T20:33:27;7.68;;;3.15;;
2868;SDS011;1442;47.448;8.582;2023-04-24T20:35:55;8.30;;;2.75;;
2868;SDS011;1442;47.448;8.582;2023-04-24T20:38:23;5.43;;;3.15;;
2868;SDS011;1442;47.448;8.582;2023-04-24T20:40:50;4.90;;;2.97;;
2868;SDS011;1442;47.448;8.582;2023-04-24T20:43:17;8.65;;;3.90;;
2868;SDS011;1442;47.448;8.582;2023-04-24T20:45:44;12.00;;;3.20;;
2868;SDS011;1442;47.448;8.582;2023-04-24T20:48:11;4.10;;;2.70;;
2868;SDS011;1442;47.448;8.582;2023-04-24T20:50:38;10.68;;;3.13;;
2868;SDS011;1442;47.448;8.582;2023-04-24T20:53:07;5.50;;;2.95;;
2868;SDS011;1442;47.448;8.582;2023-04-24T20:55:34;4.13;;;2.78;;
2868;SDS011;1442;47.448;8.582;2023-04-24T20:58:01;10.77;;;2.67;;
2868;SDS011;1442;47.448;8.582;2023-04-24T21:00:29;5.15;;;3.20;;
2868;SDS011;1442;47.448;8.582;2023-04-24T21:02:56;5.45;;;3.20;;
2868;SDS011;1442;47.448;8.582;2023-04-24T21:05:23;8.02;;;3.33;;
2868;SDS011;1442;47.448;8.582;2023-04-24T21:07:50;8.10;;;3.95;;
2868;SDS011;1442;47.448;8.582;2023-04-24T21:10:21;9.85;;;3.17;;
2868;SDS011;1442;47.448;8.582;2023-04-24T21:12:49;4.88;;;2.60;;
2868;SDS011;1442;47.448;8.582;2023-04-24T21:15:16;4.43;;;2.85;;
2868;SDS011;1442;47.448;8.582;2023-04-24T21:17:43;6.22;;;2.65;;
2868;SDS011;1442;47.448;8.582;2023-04-24T21:20:11;4.05;;;2.35;;
2868;SDS011;1442;47.448;8.582;2023-04-24T21:22:38;4.35;;;2.75;;
2868;SDS011;1442;47.448;8.582;2023-04-24T21:25:05;4.32;;;2.70;;